Time;durP1;ratioP1;P1;durP2;ratioP2;P2;SDS_P1;SDS_P2;PMS_P1;PMS_P2;Temp;Humidity;BMP_temperature;BMP_pressure;BME280_temperature;BME280_humidity;BME280_pressure;Samples;Min_cycle;Max_cycle;Signal;HPM_P1;HPM_P2
2022/05/18 00:02:03;;;;;;;9.40;8.50;;;;;;;;;;5074104;28;20247;-57
2022/05/18 00:04:29;;;;;;;8.90;8.00;;;;;;;;;;5074207;28;20211;-57
2022/05/18 00:06:55;;;;;;;10.20;8.73;;;;;;;;;;5074156;28;20199;-58
2022/05/18 00:09:21;;;;;;;8.70;7.80;;;;;;;;;;5074104;28;20256;-58
2022/05/18 00:11:49;;;;;;;9.20;8.27;;;;;;;;;;5073977;28;20195;-58
2022/05/18 00:14:15;;;;;;;9.03;8.23;;;;;;;;;;5073664;28;20227;-60
2022/05/18 00:16:41;;;;;;;10.00;8.87;;;;;;;;;;5073559;28;20235;-59
2022/05/18 00:19:07;;;;;;;9.77;8.87;;;;;;;;;;5073800;28;20203;-60
2022/05/18 00:21:33;;;;;;;9.90;8.93;;;;;;;;;;5073723;28;20562;-57
2022/05/18 00:23:59;;;;;;;9.60;8.70;;;;;;;;;;5073755;28;20192;-60
2022/05/18 00:26:25;;;;;;;9.73;8.83;;;;;;;;;;5073523;28;20742;-57
2022/05/18 00:28:53;;;;;;;9.73;8.80;;;;;;;;;;5073778;28;20291;-57
2022/05/18 00:31:19;;;;;;;9.53;8.63;;;;;;;;;;5073412;28;20651;-57
2022/05/18 00:33:45;;;;;;;8.90;8.10;;;;;;;;;;5073616;28;20207;-56
2022/05/18 00:36:11;;;;;;;11.10;8.57;;;;;;;;;;5073511;28;20246;-57
2022/05/18 00:38:37;;;;;;;9.60;8.70;;;;;;;;;;5073362;28;20568;-57
2022/05/18 00:41:03;;;;;;;9.97;9.17;;;;;;;;;;5073497;28;20196;-57
2022/05/18 00:43:37;;;;;;;9.67;8.70;;;;;;;;;;5073451;28;20203;-57
2022/05/18 00:46:05;;;;;;;10.87;9.60;;;;;;;;;;5072959;28;20265;-56
2022/05/18 00:48:31;;;;;;;10.80;9.80;;;;;;;;;;5073255;28;20204;-56
2022/05/18 00:50:59;;;;;;;11.03;9.47;;;;;;;;;;5073200;28;20538;-57
2022/05/18 00:53:27;;;;;;;10.33;9.30;;;;;;;;;;5072954;28;20804;-56
2022/05/18 00:55:56;;;;;;;10.20;9.20;;;;;;;;;;5073130;28;20737;-57
2022/05/18 00:58:23;;;;;;;10.70;9.70;;;;;;;;;;5073022;28;20199;-56
2022/05/18 01:00:51;;;;;;;10.73;9.77;;;;;;;;;;5072889;28;20680;-56
2022/05/18 01:03:19;;;;;;;9.67;8.77;;;;;;;;;;5072957;28;20200;-56
2022/05/18 01:05:49;;;;;;;9.87;8.97;;;;;;;;;;5072894;28;20681;-56
2022/05/18 01:08:16;;;;;;;12.10;9.47;;;;;;;;;;5072833;28;20196;-56
2022/05/18 01:10:42;;;;;;;10.13;9.23;;;;;;;;;;5072756;28;20231;-56
2022/05/18 01:13:08;;;;;;;10.33;9.43;;;;;;;;;;5070933;28;20273;-56
2022/05/18 01:15:34;;;;;;;10.53;9.50;;;;;;;;;;5072452;28;20641;-56
2022/05/18 01:18:01;;;;;;;9.53;8.73;;;;;;;;;;5072609;28;20279;-56
2022/05/18 01:20:32;;;;;;;10.80;9.80;;;;;;;;;;5072575;28;20250;-56
2022/05/18 01:23:04;;;;;;;9.97;8.97;;;;;;;;;;5072644;28;20204;-56
2022/05/18 01:25:38;;;;;;;11.37;10.23;;;;;;;;;;5071625;28;20226;-56
2022/05/18 01:28:08;;;;;;;10.10;9.10;;;;;;;;;;5072298;28;20206;-56
2022/05/18 01:30:35;;;;;;;10.73;9.63;;;;;;;;;;5072183;28;20240;-56
2022/05/18 01:33:04;;;;;;;11.30;10.30;;;;;;;;;;5072278;28;20269;-56
2022/05/18 01:35:31;;;;;;;10.20;9.30;;;;;;;;;;5072223;28;20215;-56
2022/05/18 01:37:57;;;;;;;11.93;10.73;;;;;;;;;;5072266;28;20282;-56
2022/05/18 01:40:28;;;;;;;11.13;9.50;;;;;;;;;;5072003;28;20248;-56
2022/05/18 01:42:59;;;;;;;11.10;10.07;;;;;;;;;;5072126;28;20202;-56
2022/05/18 01:45:26;;;;;;;11.70;10.50;;;;;;;;;;5072030;28;20802;-56
2022/05/18 01:47:52;;;;;;;10.60;9.60;;;;;;;;;;5072071;28;20212;-56
2022/05/18 01:50:23;;;;;;;11.53;10.43;;;;;;;;;;5072015;28;20202;-56
2022/05/18 01:52:49;;;;;;;12.03;10.83;;;;;;;;;;5071894;28;20231;-56
2022/05/18 01:55:16;;;;;;;11.20;10.17;;;;;;;;;;5071935;28;20249;-55
2022/05/18 01:57:42;;;;;;;12.13;10.90;;;;;;;;;;5072139;28;20200;-55
2022/05/18 02:00:09;;;;;;;11.83;10.43;;;;;;;;;;5071947;28;20688;-56
2022/05/18 02:02:36;;;;;;;11.37;10.27;;;;;;;;;;5071768;28;20199;-55
2022/05/18 02:05:02;;;;;;;11.90;10.67;;;;;;;;;;5071973;28;20206;-56
2022/05/18 02:07:28;;;;;;;11.93;10.73;;;;;;;;;;5071881;28;20624;-56
2022/05/18 02:09:55;;;;;;;12.43;11.30;;;;;;;;;;5071877;28;20204;-56
2022/05/18 02:12:21;;;;;;;11.40;10.27;;;;;;;;;;5071610;28;20704;-56
2022/05/18 02:14:47;;;;;;;12.20;11.03;;;;;;;;;;5072036;28;20585;-56
2022/05/18 02:17:13;;;;;;;11.87;10.63;;;;;;;;;;5071750;28;20266;-55
2022/05/18 02:19:40;;;;;;;12.87;11.43;;;;;;;;;;5071924;28;20204;-56
2022/05/18 02:22:06;;;;;;;11.57;10.57;;;;;;;;;;5071642;28;20211;-56
2022/05/18 02:24:32;;;;;;;11.77;10.67;;;;;;;;;;5071543;28;20302;-56
2022/05/18 02:26:58;;;;;;;12.93;11.67;;;;;;;;;;5071554;28;20200;-56
2022/05/18 02:29:24;;;;;;;12.60;11.40;;;;;;;;;;5071594;28;20249;-56
2022/05/18 02:31:50;;;;;;;12.07;10.77;;;;;;;;;;5071631;28;20286;-56
2022/05/18 02:34:16;;;;;;;12.57;10.97;;;;;;;;;;5071471;28;20237;-56
2022/05/18 02:36:44;;;;;;;12.47;11.30;;;;;;;;;;5071486;28;20225;-55
2022/05/18 02:39:10;;;;;;;12.30;11.03;;;;;;;;;;5075552;28;20208;-56
2022/05/18 02:41:36;;;;;;;12.30;10.90;;;;;;;;;;5075365;28;20222;-56
2022/05/18 02:44:02;;;;;;;13.13;11.83;;;;;;;;;;5075477;28;20283;-56
2022/05/18 02:46:28;;;;;;;12.80;11.67;;;;;;;;;;5075385;28;20203;-58
2022/05/18 02:48:54;;;;;;;13.57;12.27;;;;;;;;;;5075180;28;20207;-56
2022/05/18 02:51:22;;;;;;;13.93;11.90;;;;;;;;;;5075274;28;20658;-56
2022/05/18 02:53:50;;;;;;;13.57;12.20;;;;;;;;;;5075164;28;20212;-56
2022/05/18 02:56:17;;;;;;;13.60;12.30;;;;;;;;;;5075136;28;20614;-56
2022/05/18 02:58:48;;;;;;;13.70;12.20;;;;;;;;;;5075287;28;20616;-56
2022/05/18 03:01:15;;;;;;;13.90;12.50;;;;;;;;;;5075387;28;20564;-56
2022/05/18 03:03:41;;;;;;;12.80;11.60;;;;;;;;;;5075133;28;20655;-56
2022/05/18 03:06:09;;;;;;;14.07;12.67;;;;;;;;;;5074991;28;20545;-56
2022/05/18 03:08:36;;;;;;;13.87;12.57;;;;;;;;;;5074913;28;20195;-56
2022/05/18 03:11:04;;;;;;;13.40;12.03;;;;;;;;;;5074932;28;20195;-56
2022/05/18 03:13:30;;;;;;;15.73;12.57;;;;;;;;;;5074776;28;20224;-56
2022/05/18 03:15:56;;;;;;;13.77;12.47;;;;;;;;;;5074641;28;20188;-56
2022/05/18 03:18:22;;;;;;;13.57;12.23;;;;;;;;;;5074714;28;20202;-56
2022/05/18 03:23:36;;;;;;;12.97;11.67;;;;;;;;;;5074697;28;20620;-56
2022/05/18 03:26:04;;;;;;;15.47;12.00;;;;;;;;;;5074640;28;20215;-56
2022/05/18 03:28:30;;;;;;;13.23;12.03;;;;;;;;;;5074411;28;20207;-56
2022/05/18 03:30:56;;;;;;;13.63;12.30;;;;;;;;;;5074569;28;20249;-56
2022/05/18 03:33:23;;;;;;;15.60;12.23;;;;;;;;;;5074364;28;20225;-56
2022/05/18 03:35:49;;;;;;;16.97;12.63;;;;;;;;;;5074269;28;20715;-56
2022/05/18 03:38:15;;;;;;;14.50;13.00;;;;;;;;;;5074424;28;20199;-56
2022/05/18 03:40:41;;;;;;;14.17;12.67;;;;;;;;;;5074465;28;20195;-56
2022/05/18 03:43:08;;;;;;;14.50;13.07;;;;;;;;;;5074360;28;20195;-56
2022/05/18 03:45:34;;;;;;;14.63;13.13;;;;;;;;;;5074209;28;20229;-56
2022/05/18 03:48:01;;;;;;;13.23;11.97;;;;;;;;;;5073942;28;20195;-56
2022/05/18 03:50:30;;;;;;;13.60;12.27;;;;;;;;;;5074341;28;20295;-56
2022/05/18 03:52:56;;;;;;;12.97;11.77;;;;;;;;;;5073947;28;20555;-56
2022/05/18 03:55:22;;;;;;;13.93;12.43;;;;;;;;;;5074132;28;20230;-56
2022/05/18 03:57:48;;;;;;;13.23;11.73;;;;;;;;;;5073961;28;20707;-56
2022/05/18 04:00:16;;;;;;;12.80;11.67;;;;;;;;;;5074132;28;20195;-56
2022/05/18 04:02:43;;;;;;;12.63;11.43;;;;;;;;;;5074229;28;20203;-56
2022/05/18 04:05:09;;;;;;;14.97;12.57;;;;;;;;;;5073928;28;20278;-56
2022/05/18 04:07:35;;;;;;;12.80;11.60;;;;;;;;;;5073960;28;20302;-56
2022/05/18 04:10:01;;;;;;;12.90;11.57;;;;;;;;;;5073890;28;20721;-56
2022/05/18 04:12:27;;;;;;;13.27;11.97;;;;;;;;;;5073719;28;20195;-56
2022/05/18 04:14:54;;;;;;;12.80;11.50;;;;;;;;;;5073795;28;20199;-56
2022/05/18 04:17:21;;;;;;;13.30;11.90;;;;;;;;;;5073363;28;20805;-56
2022/05/18 04:19:47;;;;;;;12.20;11.03;;;;;;;;;;5073611;28;20261;-56
2022/05/18 04:22:13;;;;;;;12.03;10.70;;;;;;;;;;5073733;28;20199;-56
2022/05/18 04:24:39;;;;;;;12.37;11.17;;;;;;;;;;5073400;28;20214;-56
2022/05/18 04:27:06;;;;;;;11.47;10.37;;;;;;;;;;5073509;28;20217;-56
2022/05/18 04:29:32;;;;;;;13.43;11.30;;;;;;;;;;5073491;28;20609;-56
2022/05/18 04:31:58;;;;;;;11.27;10.10;;;;;;;;;;5073412;28;20191;-56
2022/05/18 04:34:26;;;;;;;12.40;11.23;;;;;;;;;;5073113;28;20255;-56
2022/05/18 04:36:52;;;;;;;11.97;10.87;;;;;;;;;;5073314;28;20202;-56
2022/05/18 04:39:18;;;;;;;11.00;10.07;;;;;;;;;;5073116;28;20195;-56
2022/05/18 04:41:44;;;;;;;11.30;10.10;;;;;;;;;;5073240;28;20199;-56
2022/05/18 04:44:10;;;;;;;11.20;10.13;;;;;;;;;;5073047;28;20191;-57
2022/05/18 04:46:36;;;;;;;11.37;10.23;;;;;;;;;;5073002;28;20200;-56
2022/05/18 04:49:02;;;;;;;12.53;10.17;;;;;;;;;;5073147;28;20242;-57
2022/05/18 04:51:30;;;;;;;11.47;10.37;;;;;;;;;;5073038;28;20195;-56
2022/05/18 04:53:56;;;;;;;11.40;10.30;;;;;;;;;;5073203;28;20740;-56
2022/05/18 04:56:24;;;;;;;12.17;11.07;;;;;;;;;;5072766;28;20753;-56
2022/05/18 04:58:50;;;;;;;12.37;11.00;;;;;;;;;;5072577;28;20184;-56
2022/05/18 05:01:16;;;;;;;11.17;10.07;;;;;;;;;;5072115;28;20256;-56
2022/05/18 05:03:42;;;;;;;11.50;10.40;;;;;;;;;;5073023;28;20195;-56
2022/05/18 05:06:08;;;;;;;10.93;9.83;;;;;;;;;;5072728;28;20242;-56
2022/05/18 05:08:37;;;;;;;11.10;10.00;;;;;;;;;;5072503;28;20272;-56
2022/05/18 05:11:04;;;;;;;10.87;9.77;;;;;;;;;;5072377;28;20253;-56
2022/05/18 05:13:30;;;;;;;10.43;9.47;;;;;;;;;;5072493;28;20564;-56
2022/05/18 05:16:00;;;;;;;10.87;9.77;;;;;;;;;;5072344;28;20591;-57
2022/05/18 05:18:26;;;;;;;9.70;8.70;;;;;;;;;;5072610;28;20562;-57
2022/05/18 05:20:52;;;;;;;10.23;9.27;;;;;;;;;;5072448;28;20222;-56
2022/05/18 05:23:20;;;;;;;9.87;8.87;;;;;;;;;;5072268;28;20534;-56
2022/05/18 05:25:48;;;;;;;10.33;9.23;;;;;;;;;;5072194;28;20349;-57
2022/05/18 05:28:14;;;;;;;10.10;9.20;;;;;;;;;;5072440;28;20221;-56
2022/05/18 05:30:40;;;;;;;10.33;9.33;;;;;;;;;;5072225;28;20706;-56
2022/05/18 05:33:06;;;;;;;10.00;9.00;;;;;;;;;;5072064;28;20272;-56
2022/05/18 05:35:32;;;;;;;11.53;9.83;;;;;;;;;;5071897;28;20282;-57
2022/05/18 05:37:58;;;;;;;11.00;9.93;;;;;;;;;;5072194;28;20196;-56
2022/05/18 05:40:24;;;;;;;13.30;10.17;;;;;;;;;;5071943;28;20205;-57
2022/05/18 05:42:51;;;;;;;9.90;8.90;;;;;;;;;;5072073;28;20204;-56
2022/05/18 05:45:18;;;;;;;8.47;7.67;;;;;;;;;;5072092;28;20196;-56
2022/05/18 05:47:44;;;;;;;10.27;8.83;;;;;;;;;;5072093;28;20642;-57
2022/05/18 05:50:10;;;;;;;9.33;8.43;;;;;;;;;;5071985;28;20604;-57
2022/05/18 05:52:36;;;;;;;9.63;7.60;;;;;;;;;;5071799;28;20200;-56
2022/05/18 05:55:02;;;;;;;8.10;7.30;;;;;;;;;;5072035;28;20710;-56
2022/05/18 05:57:28;;;;;;;10.63;8.13;;;;;;;;;;5072043;28;20259;-56
2022/05/18 05:59:55;;;;;;;9.50;8.53;;;;;;;;;;5072135;28;20201;-57
2022/05/18 06:02:22;;;;;;;8.20;7.33;;;;;;;;;;5072014;28;20234;-56
2022/05/18 06:04:48;;;;;;;8.43;7.53;;;;;;;;;;5071841;28;20218;-56
2022/05/18 06:07:14;;;;;;;8.53;7.43;;;;;;;;;;5072003;28;20196;-56
2022/05/18 06:09:41;;;;;;;8.43;7.50;;;;;;;;;;5071672;28;20201;-58
2022/05/18 06:12:08;;;;;;;11.00;7.43;;;;;;;;;;5071774;28;20230;-58
2022/05/18 06:14:34;;;;;;;11.10;7.83;;;;;;;;;;5071618;28;20287;-58
2022/05/18 06:17:01;;;;;;;7.70;6.90;;;;;;;;;;5071821;28;20249;-57
2022/05/18 06:19:29;;;;;;;8.37;7.20;;;;;;;;;;5071748;28;20210;-58
2022/05/18 06:21:56;;;;;;;9.20;6.93;;;;;;;;;;5071587;28;20709;-58
2022/05/18 06:24:22;;;;;;;7.93;7.10;;;;;;;;;;5071679;28;20217;-58
2022/05/18 06:26:48;;;;;;;8.13;6.87;;;;;;;;;;5071216;28;20538;-58
2022/05/18 06:29:14;;;;;;;9.00;7.20;;;;;;;;;;5071653;28;20203;-58
2022/05/18 06:31:40;;;;;;;8.10;7.17;;;;;;;;;;5071241;28;20195;-58
2022/05/18 06:34:07;;;;;;;9.70;6.93;;;;;;;;;;5071621;28;20321;-57
2022/05/18 06:36:34;;;;;;;7.67;6.97;;;;;;;;;;5071465;28;20672;-58
2022/05/18 06:38:59;;;;;;;8.63;7.37;;;;;;;;;;5071773;28;20199;-58
2022/05/18 06:41:25;;;;;;;8.07;7.10;;;;;;;;;;5071542;28;20281;-58
2022/05/18 06:43:53;;;;;;;8.27;6.57;;;;;;;;;;5071622;28;20662;-57
2022/05/18 06:46:19;;;;;;;8.20;6.07;;;;;;;;;;5071390;28;20197;-57
2022/05/18 06:48:45;;;;;;;7.90;7.10;;;;;;;;;;5071243;28;20206;-57
2022/05/18 06:51:13;;;;;;;7.43;6.30;;;;;;;;;;5071398;28;20199;-57
2022/05/18 06:53:40;;;;;;;10.23;7.10;;;;;;;;;;5071186;28;20215;-57
2022/05/18 06:56:06;;;;;;;12.77;6.33;;;;;;;;;;5071430;28;20567;-57
2022/05/18 06:58:32;;;;;;;8.20;6.50;;;;;;;;;;5071592;28;20210;-57
2022/05/18 07:01:01;;;;;;;8.00;6.30;;;;;;;;;;5071535;28;20227;-57
2022/05/18 07:03:27;;;;;;;9.03;6.73;;;;;;;;;;5071601;28;20282;-57
2022/05/18 07:05:53;;;;;;;7.07;5.80;;;;;;;;;;5071502;28;20203;-57
2022/05/18 07:08:20;;;;;;;8.27;6.23;;;;;;;;;;5071362;28;20196;-58
2022/05/18 07:10:46;;;;;;;7.13;5.50;;;;;;;;;;5071362;28;20253;-58
2022/05/18 07:13:16;;;;;;;6.37;5.47;;;;;;;;;;5071443;28;20227;-57
2022/05/18 07:15:43;;;;;;;6.90;5.00;;;;;;;;;;5071278;28;20286;-57
2022/05/18 07:18:09;;;;;;;5.20;4.70;;;;;;;;;;5070928;28;20243;-57
2022/05/18 07:20:35;;;;;;;6.93;4.53;;;;;;;;;;5071300;28;20204;-57
2022/05/18 07:23:01;;;;;;;5.90;4.30;;;;;;;;;;5071882;28;20697;-58
2022/05/18 07:25:28;;;;;;;6.33;4.30;;;;;;;;;;5074765;28;20251;-58
2022/05/18 07:27:54;;;;;;;7.30;4.50;;;;;;;;;;5074652;28;20214;-57
2022/05/18 07:30:20;;;;;;;4.80;4.30;;;;;;;;;;5074712;28;20200;-57
2022/05/18 07:32:46;;;;;;;4.80;4.13;;;;;;;;;;5074560;28;20229;-57
2022/05/18 07:35:12;;;;;;;9.93;4.20;;;;;;;;;;5074650;28;20363;-58
2022/05/18 07:37:38;;;;;;;6.90;4.10;;;;;;;;;;5074653;28;20188;-57
2022/05/18 07:40:06;;;;;;;4.23;3.80;;;;;;;;;;5074368;28;20637;-57
2022/05/18 07:42:34;;;;;;;6.17;4.70;;;;;;;;;;5074596;28;20287;-58
2022/05/18 07:45:00;;;;;;;5.00;4.10;;;;;;;;;;5074433;28;20202;-58
2022/05/18 07:47:30;;;;;;;5.67;4.33;;;;;;;;;;5074431;28;20200;-56
2022/05/18 07:49:56;;;;;;;4.80;4.30;;;;;;;;;;5074558;28;20674;-57
2022/05/18 07:52:22;;;;;;;5.40;4.10;;;;;;;;;;5072522;28;20887;-58
2022/05/18 07:54:48;;;;;;;11.47;4.33;;;;;;;;;;5074108;28;20228;-59
2022/05/18 07:57:15;;;;;;;5.90;4.10;;;;;;;;;;5074479;28;20724;-56
2022/05/18 07:59:42;;;;;;;4.73;3.60;;;;;;;;;;5074219;28;20200;-57
2022/05/18 08:02:08;;;;;;;4.57;3.60;;;;;;;;;;5074225;28;20205;-58
2022/05/18 08:04:34;;;;;;;5.93;3.90;;;;;;;;;;5074068;28;20199;-57
2022/05/18 08:07:00;;;;;;;4.27;3.80;;;;;;;;;;5074226;28;20200;-58
2022/05/18 08:09:26;;;;;;;4.03;3.63;;;;;;;;;;5073951;28;20689;-55
2022/05/18 08:17:23;;;;;;;5.73;3.60;;;;;;;;;;5073892;28;20227;-58
2022/05/18 08:19:49;;;;;;;9.17;3.80;;;;;;;;;;5073871;28;20201;-58
2022/05/18 08:22:17;;;;;;;4.80;3.23;;;;;;;;;;5073595;28;20674;-57
2022/05/18 08:24:43;;;;;;;4.90;3.27;;;;;;;;;;5073590;28;20247;-57
2022/05/18 08:27:11;;;;;;;4.30;3.30;;;;;;;;;;5073514;28;20202;-58
2022/05/18 08:29:37;;;;;;;4.90;3.10;;;;;;;;;;5073285;28;20213;-58
2022/05/18 08:32:04;;;;;;;4.93;3.40;;;;;;;;;;5073689;28;20203;-58
2022/05/18 08:34:33;;;;;;;5.30;3.53;;;;;;;;;;5072595;28;20226;-58
2022/05/18 08:37:00;;;;;;;6.77;3.23;;;;;;;;;;5073332;28;20210;-58
2022/05/18 08:39:26;;;;;;;5.20;3.03;;;;;;;;;;5073307;28;20244;-58
2022/05/18 08:41:52;;;;;;;4.17;2.83;;;;;;;;;;5073154;28;20230;-58
2022/05/18 08:44:24;;;;;;;5.13;3.13;;;;;;;;;;5073241;28;20541;-58
2022/05/18 08:46:55;;;;;;;5.27;3.03;;;;;;;;;;5073093;28;20192;-59
2022/05/18 08:49:30;;;;;;;4.60;3.93;;;;;;;;;;5073140;28;20202;-59
2022/05/18 08:52:02;;;;;;;4.43;3.00;;;;;;;;;;5073303;28;20218;-59
2022/05/18 08:54:37;;;;;;;4.30;2.60;;;;;;;;;;5072723;28;20208;-59
2022/05/18 08:57:04;;;;;;;3.63;2.70;;;;;;;;;;5073098;28;20202;-58
2022/05/18 08:59:32;;;;;;;6.07;2.87;;;;;;;;;;5072998;28;20275;-59
2022/05/18 09:01:59;;;;;;;3.57;2.53;;;;;;;;;;5072770;28;20291;-58
2022/05/18 09:04:26;;;;;;;7.43;3.10;;;;;;;;;;5072492;28;20196;-58
2022/05/18 09:06:54;;;;;;;7.77;2.70;;;;;;;;;;5072887;28;20246;-58
2022/05/18 09:12:10;;;;;;;3.93;2.63;;;;;;;;;;5072527;28;20195;-57
2022/05/18 09:14:37;;;;;;;5.47;2.63;;;;;;;;;;5072199;28;20301;-57
2022/05/18 09:17:09;;;;;;;3.27;2.43;;;;;;;;;;5072155;28;20249;-58
2022/05/18 09:19:39;;;;;;;4.33;2.50;;;;;;;;;;5072230;28;20213;-59
2022/05/18 09:22:10;;;;;;;3.83;2.50;;;;;;;;;;5072438;28;20206;-58
2022/05/18 09:24:42;;;;;;;3.57;2.53;;;;;;;;;;5072011;28;20267;-58
2022/05/18 09:27:20;;;;;;;4.90;2.50;;;;;;;;;;5072235;28;20202;-58
2022/05/18 09:29:48;;;;;;;2.53;2.33;;;;;;;;;;5072121;28;20214;-58
2022/05/18 09:32:28;;;;;;;6.13;2.53;;;;;;;;;;5072261;28;20748;-57
2022/05/18 09:35:03;;;;;;;6.30;2.80;;;;;;;;;;5072050;28;20227;-57
2022/05/18 09:37:32;;;;;;;6.80;2.53;;;;;;;;;;5072089;28;20209;-58
2022/05/18 09:40:01;;;;;;;3.10;2.33;;;;;;;;;;5072415;28;20202;-58
2022/05/18 09:42:29;;;;;;;4.80;2.73;;;;;;;;;;5071992;28;20207;-57
2022/05/18 09:45:00;;;;;;;4.70;2.27;;;;;;;;;;5071704;28;20228;-57
2022/05/18 09:47:27;;;;;;;4.27;2.27;;;;;;;;;;5071523;28;20203;-57
2022/05/18 09:49:54;;;;;;;3.57;2.43;;;;;;;;;;5072304;28;20259;-57
2022/05/18 09:52:21;;;;;;;2.27;2.07;;;;;;;;;;5072302;28;20211;-58
2022/05/18 09:54:47;;;;;;;3.70;2.20;;;;;;;;;;5072142;28;20237;-59
2022/05/18 09:57:18;;;;;;;4.27;2.67;;;;;;;;;;5071995;28;20199;-57
2022/05/18 09:59:46;;;;;;;3.50;2.30;;;;;;;;;;5072176;28;20212;-57
2022/05/18 10:07:46;;;;;;;7.37;2.53;;;;;;;;;;5072017;28;20231;-57
2022/05/18 10:10:14;;;;;;;3.77;3.03;;;;;;;;;;5071927;28;20665;-58
2022/05/18 10:12:43;;;;;;;3.87;2.13;;;;;;;;;;5071943;28;20277;-58
2022/05/18 10:15:19;;;;;;;3.57;2.33;;;;;;;;;;5070039;28;20212;-58
2022/05/18 10:17:47;;;;;;;2.93;2.03;;;;;;;;;;5071913;28;20266;-58
2022/05/18 10:20:20;;;;;;;4.07;2.30;;;;;;;;;;5072020;28;20196;-58
2022/05/18 10:22:47;;;;;;;4.67;2.50;;;;;;;;;;5071816;28;20202;-58
2022/05/18 10:25:22;;;;;;;3.23;2.27;;;;;;;;;;5071728;28;20215;-58
2022/05/18 10:27:50;;;;;;;3.37;2.00;;;;;;;;;;5071598;28;20253;-58
2022/05/18 10:30:17;;;;;;;4.93;2.13;;;;;;;;;;5071855;28;20631;-58
2022/05/18 10:32:53;;;;;;;4.00;2.40;;;;;;;;;;5071517;28;20196;-58
2022/05/18 10:35:31;;;;;;;2.47;2.10;;;;;;;;;;5071520;28;20652;-58
2022/05/18 10:38:00;;;;;;;10.07;2.50;;;;;;;;;;5071921;28;20205;-59
2022/05/18 10:40:27;;;;;;;6.77;2.17;;;;;;;;;;5071646;28;20226;-59
2022/05/18 10:42:55;;;;;;;7.00;2.20;;;;;;;;;;5071675;28;20197;-58
2022/05/18 10:45:32;;;;;;;4.20;2.27;;;;;;;;;;5071626;28;20238;-59
2022/05/18 10:48:02;;;;;;;3.47;2.47;;;;;;;;;;5071767;28;20326;-58
2022/05/18 10:50:32;;;;;;;5.20;2.37;;;;;;;;;;5071764;28;20198;-58
2022/05/18 10:53:00;;;;;;;4.30;2.70;;;;;;;;;;5071702;28;20573;-58
2022/05/18 10:55:28;;;;;;;4.30;2.30;;;;;;;;;;5071231;28;20227;-58
2022/05/18 10:57:57;;;;;;;4.37;2.37;;;;;;;;;;5071812;28;20201;-58
2022/05/18 11:00:25;;;;;;;4.63;2.40;;;;;;;;;;5075369;28;20293;-59
2022/05/18 11:02:55;;;;;;;4.40;2.80;;;;;;;;;;5075332;28;20202;-58
2022/05/18 11:05:26;;;;;;;3.70;2.40;;;;;;;;;;5075269;28;20202;-58
2022/05/18 11:07:52;;;;;;;3.30;2.63;;;;;;;;;;5075265;28;20200;-58
2022/05/18 11:10:18;;;;;;;3.10;2.20;;;;;;;;;;5075144;28;20194;-58
2022/05/18 11:12:48;;;;;;;3.73;2.13;;;;;;;;;;5075205;28;20715;-58
2022/05/18 11:15:20;;;;;;;4.07;2.40;;;;;;;;;;5075017;28;20602;-58
2022/05/18 11:17:52;;;;;;;4.77;2.40;;;;;;;;;;5074854;28;20252;-58
2022/05/18 11:20:25;;;;;;;3.73;2.20;;;;;;;;;;5075105;28;20260;-59
2022/05/18 11:22:53;;;;;;;5.03;2.10;;;;;;;;;;5074911;28;20228;-59
2022/05/18 11:25:24;;;;;;;3.27;2.17;;;;;;;;;;5074678;28;20692;-59
2022/05/18 11:27:52;;;;;;;4.37;2.27;;;;;;;;;;5074863;28;20206;-59
2022/05/18 11:30:23;;;;;;;2.80;2.10;;;;;;;;;;5074601;28;20225;-59
2022/05/18 11:32:54;;;;;;;5.05;2.30;;;;;;;;;;5073538;28;20426;-58
2022/05/18 11:35:26;;;;;;;3.90;2.40;;;;;;;;;;5073361;28;20902;-57
2022/05/18 11:37:57;;;;;;;3.63;2.20;;;;;;;;;;5073365;28;20427;-59
2022/05/18 11:40:26;;;;;;;3.87;2.40;;;;;;;;;;5074562;28;20190;-58
2022/05/18 11:42:57;;;;;;;3.17;2.57;;;;;;;;;;5074304;28;20197;-58
2022/05/18 11:45:30;;;;;;;3.80;2.30;;;;;;;;;;5074375;28;20267;-58
2022/05/18 11:48:03;;;;;;;3.58;2.47;;;;;;;;;;5073304;28;20457;-58
2022/05/18 11:50:35;;;;;;;3.83;2.30;;;;;;;;;;5073142;28;20518;-58
2022/05/18 11:53:14;;;;;;;5.97;2.60;;;;;;;;;;5073129;28;20487;-58
2022/05/18 11:55:44;;;;;;;4.75;2.60;;;;;;;;;;5072825;28;20759;-59
2022/05/18 11:58:17;;;;;;;4.65;2.30;;;;;;;;;;5072694;28;20423;-59
2022/05/18 12:00:55;;;;;;;4.15;2.38;;;;;;;;;;5072738;28;20404;-58
2022/05/18 12:03:39;;;;;;;3.42;2.42;;;;;;;;;;5072953;28;20418;-60
2022/05/18 12:06:17;;;;;;;5.40;2.28;;;;;;;;;;5072736;28;20411;-59
2022/05/18 12:08:56;;;;;;;4.18;2.30;;;;;;;;;;5072375;28;20414;-59
2022/05/18 12:11:26;;;;;;;3.33;2.38;;;;;;;;;;5072715;28;20396;-59
2022/05/18 12:13:59;;;;;;;4.18;2.20;;;;;;;;;;5072752;28;20411;-59
2022/05/18 12:16:28;;;;;;;3.90;2.30;;;;;;;;;;5072601;28;20422;-59
2022/05/18 12:18:57;;;;;;;2.92;1.92;;;;;;;;;;5072695;28;20412;-59
2022/05/18 12:21:27;;;;;;;2.63;1.97;;;;;;;;;;5074068;28;20228;-60
2022/05/18 12:23:56;;;;;;;3.53;2.10;;;;;;;;;;5073747;28;20395;-58
2022/05/18 12:26:22;;;;;;;5.67;2.23;;;;;;;;;;5072896;28;20599;-59
2022/05/18 12:28:48;;;;;;;3.30;2.10;;;;;;;;;;5073589;28;20212;-59
2022/05/18 12:31:15;;;;;;;2.80;2.00;;;;;;;;;;5072070;28;20949;-58
2022/05/18 12:33:47;;;;;;;6.00;2.50;;;;;;;;;;5072194;28;20423;-58
2022/05/18 12:36:15;;;;;;;3.25;2.30;;;;;;;;;;5072141;28;20431;-58
2022/05/18 12:38:53;;;;;;;4.38;2.30;;;;;;;;;;5072031;28;20403;-58
2022/05/18 12:41:21;;;;;;;4.75;2.15;;;;;;;;;;5072211;28;20819;-59
2022/05/18 12:43:50;;;;;;;3.10;2.00;;;;;;;;;;5072220;28;20886;-59
2022/05/18 12:46:22;;;;;;;4.70;2.28;;;;;;;;;;5072014;28;20392;-59
2022/05/18 12:48:56;;;;;;;2.92;2.20;;;;;;;;;;5071936;28;20409;-59
2022/05/18 12:51:34;;;;;;;3.25;2.00;;;;;;;;;;5072022;28;20458;-60
2022/05/18 12:54:04;;;;;;;3.60;1.98;;;;;;;;;;5071887;28;20451;-59
2022/05/18 12:56:44;;;;;;;4.30;1.73;;;;;;;;;;5071563;28;20550;-59
2022/05/18 12:59:12;;;;;;;4.05;1.83;;;;;;;;;;5071598;28;20462;-59
2022/05/18 13:01:39;;;;;;;3.85;2.10;;;;;;;;;;5071635;28;20408;-59
2022/05/18 13:04:27;;;;;;;3.85;2.10;;;;;;;;;;5071411;28;20802;-60
2022/05/18 13:06:56;;;;;;;4.15;2.20;;;;;;;;;;5071455;28;20410;-59
2022/05/18 13:09:36;;;;;;;3.63;1.98;;;;;;;;;;5071579;28;20606;-59
2022/05/18 13:12:27;;;;;;;2.75;1.95;;;;;;;;;;5071480;28;20785;-60
2022/05/18 13:14:56;;;;;;;3.42;1.95;;;;;;;;;;5051362;28;20443;-59
2022/05/18 13:17:23;;;;;;;4.40;1.98;;;;;;;;;;5071339;28;20534;-59
2022/05/18 13:19:59;;;;;;;4.60;1.90;;;;;;;;;;5079748;28;20440;-60
2022/05/18 13:22:42;;;;;;;3.53;1.90;;;;;;;;;;5090754;28;20489;-60
2022/05/18 13:25:08;;;;;;;3.92;2.10;;;;;;;;;;5091354;28;20398;-60
2022/05/18 13:27:40;;;;;;;3.50;2.10;;;;;;;;;;5091121;28;20401;-60
2022/05/18 13:30:07;;;;;;;5.15;2.10;;;;;;;;;;5091586;28;20390;-60
2022/05/18 13:32:33;;;;;;;3.40;1.80;;;;;;;;;;5091314;28;20409;-60
2022/05/18 13:35:03;;;;;;;4.13;1.90;;;;;;;;;;5091303;28;20896;-60
2022/05/18 13:37:32;;;;;;;3.70;2.25;;;;;;;;;;5091233;28;20942;-59
2022/05/18 13:39:59;;;;;;;3.13;2.10;;;;;;;;;;5091289;28;20397;-59
2022/05/18 13:42:27;;;;;;;3.80;2.30;;;;;;;;;;5090746;28;20877;-59
2022/05/18 13:44:54;;;;;;;4.10;1.90;;;;;;;;;;5090788;28;20396;-59
2022/05/18 13:47:22;;;;;;;4.72;1.80;;;;;;;;;;5090548;28;20726;-59
2022/05/18 13:49:48;;;;;;;5.72;1.80;;;;;;;;;;5090515;28;20425;-59
2022/05/18 13:52:19;;;;;;;3.78;1.85;;;;;;;;;;5090728;28;20390;-59
2022/05/18 13:54:47;;;;;;;3.05;1.90;;;;;;;;;;5090578;28;20416;-59
2022/05/18 13:57:18;;;;;;;4.72;2.00;;;;;;;;;;5090683;28;20408;-59
2022/05/18 13:59:46;;;;;;;3.53;2.10;;;;;;;;;;5090680;28;20445;-59
2022/05/18 14:02:15;;;;;;;3.42;1.90;;;;;;;;;;5090605;28;20417;-59
2022/05/18 14:04:42;;;;;;;2.60;2.10;;;;;;;;;;5090534;28;20398;-59
2022/05/18 14:07:08;;;;;;;4.18;2.00;;;;;;;;;;5090708;28;20414;-58
2022/05/18 14:09:38;;;;;;;3.90;2.13;;;;;;;;;;5090712;28;20456;-59
2022/05/18 14:12:04;;;;;;;5.47;2.00;;;;;;;;;;5090944;28;20401;-58
2022/05/18 14:14:33;;;;;;;3.17;2.00;;;;;;;;;;5090642;28;20612;-59
2022/05/18 14:17:01;;;;;;;2.90;1.85;;;;;;;;;;5090662;28;20766;-59
2022/05/18 14:19:33;;;;;;;4.37;1.80;;;;;;;;;;5090830;28;20409;-59
2022/05/18 14:22:00;;;;;;;4.53;2.00;;;;;;;;;;5090899;28;20983;-59
2022/05/18 14:24:28;;;;;;;3.50;2.00;;;;;;;;;;5090553;28;20446;-59
2022/05/18 14:26:57;;;;;;;2.40;1.80;;;;;;;;;;5090835;28;20513;-59
2022/05/18 14:29:26;;;;;;;3.37;2.00;;;;;;;;;;5090733;28;20459;-58
2022/05/18 14:31:55;;;;;;;4.35;1.90;;;;;;;;;;5090794;28;20501;-58
2022/05/18 14:34:26;;;;;;;3.47;1.88;;;;;;;;;;5094916;28;20414;-58
2022/05/18 14:36:54;;;;;;;3.08;2.08;;;;;;;;;;5094491;28;20449;-58
2022/05/18 14:39:23;;;;;;;3.40;2.10;;;;;;;;;;5094370;28;20394;-58
2022/05/18 14:41:50;;;;;;;4.32;2.25;;;;;;;;;;5094877;28;20805;-58
2022/05/18 14:44:24;;;;;;;4.63;1.98;;;;;;;;;;5094805;28;20799;-58
2022/05/18 14:46:53;;;;;;;2.72;2.10;;;;;;;;;;5094575;28;20799;-58
2022/05/18 14:49:24;;;;;;;3.13;1.90;;;;;;;;;;5094527;28;20401;-59
2022/05/18 14:51:56;;;;;;;2.93;1.90;;;;;;;;;;5094487;28;20413;-58
2022/05/18 14:54:24;;;;;;;3.10;2.08;;;;;;;;;;5094442;28;20492;-58
2022/05/18 14:56:51;;;;;;;4.05;2.20;;;;;;;;;;5094291;28;20822;-58
2022/05/18 14:59:18;;;;;;;3.38;2.20;;;;;;;;;;5094458;28;20497;-58